Time;durP1;ratioP1;P1;durP2;ratioP2;P2;SDS_P1;SDS_P2;PMS_P1;PMS_P2;Temp;Humidity;BMP_temperature;BMP_pressure;BME280_temperature;BME280_humidity;BME280_pressure;Samples;Min_cycle;Max_cycle;Signal;HPM_P1;HPM_P2
2022/04/24 00:02:41;;;;;;;13.73;11.50;;;;;;;13.09;55.89;96817.63;7036804;28;20706;-78
2022/04/24 00:06:03;;;;;;;16.70;12.53;;;;;;;12.58;57.97;96798.84;7022861;28;20197;-78
2022/04/24 00:09:24;;;;;;;15.27;12.67;;;;;;;12.65;58.40;96815.63;7008500;28;20223;-78
2022/04/24 00:12:46;;;;;;;15.17;12.90;;;;;;;13.23;56.10;96807.88;7009209;28;20618;-78
2022/04/24 00:16:10;;;;;;;16.30;12.63;;;;;;;13.09;56.97;96817.63;7008168;28;20213;-78
2022/04/24 00:19:31;;;;;;;16.37;12.73;;;;;;;12.48;58.56;96790.69;7008407;28;20215;-78
2022/04/24 00:22:53;;;;;;;17.67;12.10;;;;;;;13.03;58.32;96801.66;7008732;28;20697;-78
2022/04/24 00:26:14;;;;;;;13.23;11.37;;;;;;;13.43;56.62;96791.66;7007638;28;20218;-78
2022/04/24 00:29:37;;;;;;;14.93;11.97;;;;;;;13.46;56.15;96795.72;7008223;28;20223;-78
2022/04/24 00:32:59;;;;;;;15.20;12.30;;;;;;;13.08;57.11;96794.38;7008395;28;20231;-79
2022/04/24 00:36:21;;;;;;;14.60;11.93;;;;;;;12.87;57.65;96783.75;7011932;28;20250;-79
2022/04/24 00:39:43;;;;;;;13.83;11.60;;;;;;;13.11;57.55;96780.28;7036133;28;20206;-78
2022/04/24 00:43:04;;;;;;;18.10;11.70;;;;;;;13.32;57.31;96771.09;7012538;28;20195;-78
2022/04/24 00:46:39;;;;;;;12.77;10.93;;;;;;;13.37;57.05;96770.28;7007291;28;20206;-78
2022/04/24 00:50:02;;;;;;;15.43;11.23;;;;;;;13.52;55.75;96778.41;7007978;28;20227;-79
2022/04/24 00:53:24;;;;;;;14.93;11.33;;;;;;;13.25;56.22;96780.56;7007650;28;20209;-79
2022/04/24 00:56:46;;;;;;;14.27;11.40;;;;;;;13.35;56.15;96778.69;7006313;28;20241;-79
2022/04/24 01:00:09;;;;;;;14.60;12.37;;;;;;;13.05;57.37;96767.84;7007268;28;20227;-78
2022/04/24 01:03:31;;;;;;;15.57;12.10;;;;;;;13.23;57.25;96756.47;7007002;28;20216;-81
2022/04/24 01:06:54;;;;;;;15.10;11.80;;;;;;;13.41;57.06;96755.13;7006142;28;20213;-78
2022/04/24 01:10:15;;;;;;;12.27;10.97;;;;;;;13.59;56.23;96751.84;7006635;28;20594;-79
2022/04/24 01:13:37;;;;;;;14.47;11.63;;;;;;;13.71;55.53;96738.81;7007299;28;20217;-78
2022/04/24 01:17:00;;;;;;;12.37;11.07;;;;;;;13.69;55.19;96741.00;7006722;28;20218;-78
2022/04/24 01:20:23;;;;;;;12.23;10.87;;;;;;;13.69;54.92;96739.09;7007163;28;20231;-78
2022/04/24 01:23:44;;;;;;;14.40;11.07;;;;;;;13.95;54.77;96750.66;7007296;28;20321;-78
2022/04/24 01:27:06;;;;;;;11.53;10.10;;;;;;;13.99;54.09;96752.53;7006560;28;20210;-79
2022/04/24 01:30:28;;;;;;;17.87;13.57;;;;;;;12.70;58.01;96756.94;7006513;28;20319;-78
2022/04/24 01:33:49;;;;;;;15.87;13.03;;;;;;;12.59;58.75;96739.13;7007221;28;20270;-78
2022/04/24 01:37:12;;;;;;;14.40;12.73;;;;;;;13.37;57.84;96767.56;7006023;28;20202;-78
2022/04/24 01:40:34;;;;;;;12.70;11.37;;;;;;;13.31;56.54;96723.47;7006878;28;20292;-79
2022/04/24 01:43:55;;;;;;;15.50;11.77;;;;;;;13.72;55.86;96762.94;7006802;28;20356;-79
2022/04/24 01:47:17;;;;;;;12.87;11.53;;;;;;;13.59;55.81;96762.69;7006059;28;20203;-81
2022/04/24 01:50:39;;;;;;;15.40;13.30;;;;;;;13.28;57.27;96766.50;7006015;28;20712;-79
2022/04/24 01:54:02;;;;;;;15.53;12.70;;;;;;;13.52;56.27;96735.88;7006203;28;20242;-79
2022/04/24 01:57:23;;;;;;;15.10;12.60;;;;;;;13.52;56.49;96792.72;7005263;28;20264;-79
2022/04/24 02:00:45;;;;;;;15.70;13.33;;;;;;;12.74;59.31;96809.41;7006172;28;20272;-78
2022/04/24 02:04:06;;;;;;;15.30;12.83;;;;;;;13.27;59.27;96802.78;7006303;28;20207;-79
2022/04/24 02:07:28;;;;;;;18.90;13.67;;;;;;;13.52;58.41;96821.72;7004948;28;20350;-79
2022/04/24 02:10:51;;;;;;;15.20;12.57;;;;;;;13.92;57.43;96833.28;7005892;28;20222;-78
2022/04/24 02:14:13;;;;;;;16.10;13.67;;;;;;;13.81;57.57;96837.09;7005362;28;20258;-79
2022/04/24 02:17:35;;;;;;;19.13;13.63;;;;;;;14.10;57.40;96818.38;7004561;28;20211;-78
2022/04/24 02:20:56;;;;;;;16.27;12.70;;;;;;;14.09;57.06;96824.88;7004987;28;20233;-78
2022/04/24 02:24:18;;;;;;;14.37;12.27;;;;;;;14.43;56.23;96836.72;7005523;28;20236;-79
2022/04/24 02:27:41;;;;;;;16.33;14.00;;;;;;;14.38;56.01;96850.28;7005004;28;20215;-79
2022/04/24 02:31:02;;;;;;;15.70;13.03;;;;;;;14.10;56.70;96845.47;7020676;28;20236;-78
2022/04/24 02:34:25;;;;;;;16.80;13.87;;;;;;;13.75;59.39;96831.97;7031575;28;20253;-78
2022/04/24 02:37:47;;;;;;;18.13;14.27;;;;;;;13.45;60.09;96854.47;7030950;28;20302;-78
2022/04/24 02:41:09;;;;;;;19.90;15.53;;;;;;;13.79;60.33;96838.47;7031236;28;20322;-78
2022/04/24 02:44:32;;;;;;;17.53;14.53;;;;;;;14.02;59.42;96840.59;7031333;28;20208;-78
2022/04/24 02:47:54;;;;;;;16.50;13.53;;;;;;;14.33;58.46;96853.81;7030529;28;20698;-78
2022/04/24 02:51:15;;;;;;;17.63;14.67;;;;;;;14.23;57.40;96853.84;7030891;28;20325;-78
2022/04/24 02:54:39;;;;;;;20.80;16.07;;;;;;;13.69;60.33;96860.16;7030721;28;20211;-77
2022/04/24 02:58:01;;;;;;;21.60;16.57;;;;;;;13.78;60.66;96877.47;7029825;28;20222;-77
2022/04/24 03:01:24;;;;;;;22.37;18.30;;;;;;;13.25;62.63;96867.97;7030900;28;20715;-77
2022/04/24 03:04:46;;;;;;;17.80;14.77;;;;;;;14.41;59.45;96866.84;7030789;28;20201;-78
2022/04/24 03:08:09;;;;;;;41.40;16.57;;;;;;;14.10;60.05;96840.06;7030099;28;20368;-78
2022/04/24 03:11:30;;;;;;;20.83;16.97;;;;;;;14.01;61.14;96864.19;7029904;28;20301;-78
2022/04/24 03:14:52;;;;;;;22.27;17.47;;;;;;;14.09;61.17;96849.28;7030484;28;20603;-78
2022/04/24 03:18:15;;;;;;;23.03;17.97;;;;;;;14.13;61.02;96859.28;7029710;28;20291;-77
2022/04/24 03:21:37;;;;;;;21.67;17.90;;;;;;;14.50;60.36;96858.91;7030626;28;20232;-77
2022/04/24 03:24:58;;;;;;;21.47;18.07;;;;;;;14.69;59.83;96843.66;7030039;28;20213;-78
2022/04/24 03:28:20;;;;;;;21.70;16.27;;;;;;;14.43;59.60;96863.81;7029473;28;20310;-78
2022/04/24 03:31:41;;;;;;;21.87;17.27;;;;;;;14.38;59.96;96869.25;7029928;28;20231;-77
2022/04/24 03:35:06;;;;;;;24.73;17.37;;;;;;;14.34;60.21;96843.81;7030033;28;20291;-77
2022/04/24 03:38:28;;;;;;;20.57;16.83;;;;;;;14.44;60.92;96881.72;7029856;28;20204;-78
2022/04/24 03:41:49;;;;;;;25.83;18.70;;;;;;;14.68;60.55;96880.81;7029973;28;20311;-77
2022/04/24 03:45:11;;;;;;;22.80;18.33;;;;;;;14.82;59.67;96878.31;7029857;28;20301;-77
2022/04/24 03:48:33;;;;;;;24.00;18.60;;;;;;;14.58;60.44;96874.63;7029618;28;20710;-77
2022/04/24 03:51:56;;;;;;;23.17;18.13;;;;;;;14.72;60.17;96868.34;7032492;28;20235;-77
2022/04/24 03:55:18;;;;;;;25.03;18.50;;;;;;;14.85;60.14;96859.59;7028555;28;20296;-77
2022/04/24 03:58:40;;;;;;;18.67;16.20;;;;;;;15.01;58.63;96873.88;7028164;28;20738;-77
2022/04/24 04:02:02;;;;;;;21.40;17.13;;;;;;;14.78;59.51;96878.06;7027721;28;20232;-76
2022/04/24 04:05:24;;;;;;;21.17;17.73;;;;;;;14.80;59.47;96864.25;7033737;28;20221;-77
2022/04/24 04:08:47;;;;;;;22.57;18.40;;;;;;;14.58;60.06;96852.94;7032202;28;20593;-77
2022/04/24 04:12:10;;;;;;;24.27;18.50;;;;;;;14.34;61.02;96870.91;7031532;28;20228;-77
2022/04/24 04:15:32;;;;;;;26.37;20.07;;;;;;;14.48;61.21;96885.50;7029090;28;20714;-77
2022/04/24 04:18:54;;;;;;;24.53;19.53;;;;;;;14.44;61.74;96887.13;7028722;28;20731;-77
2022/04/24 04:22:15;;;;;;;27.23;19.97;;;;;;;14.50;61.92;96888.72;7029212;28;20227;-77
2022/04/24 04:25:38;;;;;;;30.40;20.50;;;;;;;14.23;62.19;96866.59;7027729;28;20202;-78
2022/04/24 04:28:59;;;;;;;27.83;20.00;;;;;;;14.78;61.36;96890.81;7029537;28;20229;-77
2022/04/24 04:32:21;;;;;;;24.10;19.00;;;;;;;14.57;61.08;96900.91;7030805;28;20616;-77
2022/04/24 04:35:43;;;;;;;27.20;20.50;;;;;;;14.38;61.49;96886.34;7029990;28;20352;-78
2022/04/24 04:39:04;;;;;;;25.07;20.30;;;;;;;14.80;61.48;96911.16;7016913;28;20209;-77
2022/04/24 04:42:27;;;;;;;27.67;21.50;;;;;;;14.93;60.94;96920.59;7002263;28;20256;-76
2022/04/24 04:45:49;;;;;;;24.60;18.40;;;;;;;14.92;60.60;96936.06;7028802;28;20235;-77
2022/04/24 04:49:10;;;;;;;24.83;19.73;;;;;;;14.97;60.23;96946.06;7028733;28;20302;-77
2022/04/24 04:52:32;;;;;;;30.00;21.23;;;;;;;14.87;60.92;96967.84;7034825;28;20253;-76
2022/04/24 04:55:54;;;;;;;25.23;18.53;;;;;;;13.48;65.57;96993.88;7022474;28;20296;-77
2022/04/24 04:59:18;;;;;;;14.63;11.10;;;;;;;13.52;64.14;96998.47;7007804;28;20205;-77
2022/04/24 05:02:40;;;;;;;11.47;7.83;;;;;;;12.95;65.81;96997.75;7006497;28;20252;-77
2022/04/24 05:06:02;;;;;;;10.17;8.10;;;;;;;13.32;64.88;97005.72;7022386;28;20214;-77
2022/04/24 05:09:24;;;;;;;8.03;7.23;;;;;;;13.54;63.07;96996.34;7034129;28;20311;-77
2022/04/24 05:12:46;;;;;;;6.97;5.37;;;;;;;13.21;63.93;97021.13;7035182;28;20223;-77
2022/04/24 05:16:09;;;;;;;5.43;4.90;;;;;;;13.47;63.31;97012.03;7034051;28;20294;-77
2022/04/24 05:19:30;;;;;;;5.13;4.33;;;;;;;13.78;61.61;97026.44;7033830;28;20237;-77
2022/04/24 05:22:52;;;;;;;3.77;3.30;;;;;;;13.91;59.83;97042.97;7034337;28;20286;-77
2022/04/24 05:26:14;;;;;;;3.33;3.03;;;;;;;13.51;60.42;97031.25;7034296;28;20246;-78
2022/04/24 05:29:35;;;;;;;3.53;3.23;;;;;;;13.53;60.32;96996.59;7038295;28;20239;-80
2022/04/24 05:32:58;;;;;;;4.63;2.57;;;;;;;13.84;59.51;97052.44;7037953;28;20227;-80
2022/04/24 05:36:20;;;;;;;4.17;2.60;;;;;;;13.65;60.14;97044.03;7034657;28;20288;-80
2022/04/24 05:39:41;;;;;;;3.33;2.50;;;;;;;13.76;60.75;97059.19;7036003;28;20205;-80
2022/04/24 05:43:03;;;;;;;4.10;2.43;;;;;;;13.80;61.03;97068.41;7036338;28;20362;-80
2022/04/24 05:46:25;;;;;;;2.03;1.77;;;;;;;13.60;60.85;97062.13;7034105;28;20199;-78
2022/04/24 05:49:47;;;;;;;1.70;1.60;;;;;;;13.35;60.35;97010.63;7033822;28;20222;-77
2022/04/24 05:53:09;;;;;;;1.93;1.83;;;;;;;13.90;59.44;97051.38;7017249;28;20303;-77
2022/04/24 05:56:33;;;;;;;5.10;1.63;;;;;;;13.67;60.56;97052.69;7003719;28;20216;-78
2022/04/24 05:59:54;;;;;;;1.30;1.30;;;;;;;13.15;61.03;97049.25;7006680;28;20288;-78
2022/04/24 06:03:16;;;;;;;1.30;1.20;;;;;;;12.72;62.42;97062.22;7006714;28;20292;-78
2022/04/24 06:06:39;;;;;;;1.30;1.20;;;;;;;13.13;62.17;97055.97;7014415;28;20203;-81
2022/04/24 06:10:00;;;;;;;1.90;1.80;;;;;;;13.09;61.11;97046.78;7009162;28;20232;-80
2022/04/24 06:13:22;;;;;;;4.20;1.80;;;;;;;13.10;61.67;97061.94;7007187;28;20225;-80
2022/04/24 06:16:44;;;;;;;1.80;1.70;;;;;;;13.58;60.14;97054.25;7006720;28;20211;-80
2022/04/24 06:20:07;;;;;;;1.77;1.67;;;;;;;13.21;60.60;97045.47;7005368;28;20257;-77
2022/04/24 06:23:31;;;;;;;2.83;2.27;;;;;;;13.02;61.34;97063.25;7032427;28;20204;-78
2022/04/24 06:26:53;;;;;;;1.77;1.57;;;;;;;12.64;62.28;97071.63;7031997;28;20213;-78
2022/04/24 06:30:15;;;;;;;1.50;1.40;;;;;;;12.52;62.89;97059.38;7032078;28;20235;-83
2022/04/24 06:33:37;;;;;;;1.40;1.30;;;;;;;12.92;62.00;97051.53;7020674;28;20207;-79
2022/04/24 06:36:58;;;;;;;1.57;1.47;;;;;;;12.63;62.12;97007.00;7003471;28;20208;-80
2022/04/24 06:40:23;;;;;;;1.20;1.20;;;;;;;12.84;62.18;97014.97;7004240;28;20570;-78
2022/04/24 06:43:45;;;;;;;1.40;1.30;;;;;;;13.05;61.21;97049.19;7004883;28;20294;-81
2022/04/24 06:47:07;;;;;;;1.30;1.30;;;;;;;12.48;63.14;97048.28;7014769;28;20229;-81
2022/04/24 06:50:30;;;;;;;1.00;1.00;;;;;;;12.79;62.40;97054.69;7030987;28;20762;-80
2022/04/24 06:53:51;;;;;;;1.27;1.20;;;;;;;13.09;60.39;97063.03;7024904;28;20333;-78
2022/04/24 06:57:15;;;;;;;1.20;1.20;;;;;;;12.57;62.41;97052.09;7015659;28;20211;-80
2022/04/24 07:00:38;;;;;;;1.10;1.10;;;;;;;13.24;60.73;97060.38;7018902;28;20267;-80
2022/04/24 07:04:00;;;;;;;3.03;1.73;;;;;;;12.55;62.29;97021.00;7015964;28;20689;-81
2022/04/24 07:07:21;;;;;;;1.50;1.00;;;;;;;13.12;60.81;97071.44;7003868;28;20215;-81
2022/04/24 07:10:43;;;;;;;0.97;0.97;;;;;;;12.96;60.85;96996.66;7031605;28;20227;-80
2022/04/24 07:14:06;;;;;;;0.83;0.83;;;;;;;13.20;60.38;97070.09;7030964;28;20291;-80
2022/04/24 07:17:27;;;;;;;1.60;1.40;;;;;;;13.80;59.43;97075.75;7031101;28;20223;-81
2022/04/24 07:20:49;;;;;;;0.90;0.90;;;;;;;13.68;59.36;97067.03;7032557;28;20238;-80
2022/04/24 07:24:11;;;;;;;1.00;1.00;;;;;;;13.74;58.17;97077.59;7031043;28;20287;-78
2022/04/24 07:27:32;;;;;;;0.87;0.87;;;;;;;13.87;58.20;97100.69;7031410;28;20197;-79
2022/04/24 07:30:55;;;;;;;7.53;6.37;;;;;;;13.90;58.19;97092.00;7032222;28;20284;-80
2022/04/24 07:34:17;;;;;;;1.03;1.03;;;;;;;13.23;60.01;97108.25;7032979;28;20211;-80
2022/04/24 07:37:38;;;;;;;1.10;1.10;;;;;;;13.77;60.10;97104.19;7033034;28;20238;-80
2022/04/24 07:41:00;;;;;;;1.10;1.10;;;;;;;13.86;59.61;97109.91;7033390;28;20259;-80
2022/04/24 07:44:22;;;;;;;1.40;1.40;;;;;;;13.82;59.62;97108.78;7033041;28;20212;-80
2022/04/24 07:47:46;;;;;;;1.40;1.40;;;;;;;13.58;60.44;97121.16;7032549;28;20221;-80
2022/04/24 07:51:07;;;;;;;1.60;1.50;;;;;;;13.09;61.27;97115.22;7032834;28;20307;-80
2022/04/24 07:54:29;;;;;;;1.20;1.20;;;;;;;13.26;60.91;97088.81;7032985;28;20298;-80
2022/04/24 07:57:52;;;;;;;1.20;1.20;;;;;;;13.11;60.39;97131.19;7031006;28;20270;-79
2022/04/24 08:01:16;;;;;;;1.00;1.00;;;;;;;12.84;61.82;97125.03;7032730;28;20233;-80
2022/04/24 08:04:39;;;;;;;3.40;3.07;;;;;;;12.88;62.39;97120.75;7032963;28;20567;-80
2022/04/24 08:08:01;;;;;;;1.50;1.40;;;;;;;13.73;58.79;97094.13;7032005;28;20195;-80
2022/04/24 08:11:23;;;;;;;1.10;1.10;;;;;;;13.70;58.94;97091.97;7033114;28;20233;-80
2022/04/24 08:14:44;;;;;;;1.30;1.20;;;;;;;13.76;59.72;97107.94;7032916;28;20203;-80
2022/04/24 08:18:07;;;;;;;1.10;1.10;;;;;;;14.33;57.98;97115.97;7031754;28;20226;-80
2022/04/24 08:21:30;;;;;;;2.27;2.00;;;;;;;14.19;58.61;97115.69;7037592;28;20239;-80
2022/04/24 08:24:52;;;;;;;2.27;2.07;;;;;;;13.89;60.28;97123.72;7038210;28;20204;-80
2022/04/24 08:28:14;;;;;;;1.80;1.70;;;;;;;13.84;61.09;97125.56;7038045;28;20290;-80
2022/04/24 08:31:36;;;;;;;2.23;1.90;;;;;;;13.66;61.51;97135.00;7038323;28;20256;-80
2022/04/24 08:34:58;;;;;;;1.80;1.70;;;;;;;13.94;61.34;97140.00;7038217;28;20597;-80
2022/04/24 08:38:20;;;;;;;2.07;1.90;;;;;;;14.01;60.76;97145.13;7039949;28;20205;-80
2022/04/24 08:41:43;;;;;;;2.00;1.90;;;;;;;14.17;60.38;97136.78;7037741;28;20320;-80
2022/04/24 08:45:07;;;;;;;2.23;1.77;;;;;;;14.19;59.87;97125.69;7037766;28;20233;-80
2022/04/24 08:48:28;;;;;;;2.63;1.70;;;;;;;14.33;59.75;97153.94;7037311;28;20212;-80
2022/04/24 08:51:50;;;;;;;1.80;1.50;;;;;;;13.97;60.27;97150.28;7037256;28;20229;-80
2022/04/24 08:55:13;;;;;;;1.30;1.20;;;;;;;13.93;60.56;97156.50;7035280;28;20225;-80
2022/04/24 08:58:35;;;;;;;3.10;1.47;;;;;;;13.79;61.60;97160.78;7035856;28;20266;-80
2022/04/24 09:01:59;;;;;;;1.53;1.43;;;;;;;13.67;61.58;97152.88;7035745;28;20264;-80
2022/04/24 09:05:22;;;;;;;1.10;1.10;;;;;;;13.72;60.85;97125.81;7036017;28;20334;-80
2022/04/24 09:08:43;;;;;;;4.30;3.10;;;;;;;14.13;60.56;97140.28;7035163;28;20274;-79
2022/04/24 09:12:11;;;;;;;2.43;2.00;;;;;;;13.75;61.00;97140.72;7035666;28;20220;-80
2022/04/24 09:15:33;;;;;;;1.20;1.20;;;;;;;13.91;60.03;97126.97;7035520;28;20248;-80
2022/04/24 09:18:55;;;;;;;1.20;1.20;;;;;;;14.09;59.34;97126.47;7034303;28;20215;-80
2022/04/24 09:22:17;;;;;;;1.70;1.60;;;;;;;14.41;59.51;97147.97;7035605;28;20238;-80
2022/04/24 09:25:39;;;;;;;2.60;1.80;;;;;;;14.12;59.56;97144.91;7036017;28;20217;-80
2022/04/24 09:29:02;;;;;;;1.97;1.83;;;;;;;14.03;60.75;97161.94;7035333;28;20298;-82
2022/04/24 09:32:24;;;;;;;1.27;1.20;;;;;;;13.83;60.61;97160.00;7035214;28;20828;-80
2022/04/24 09:35:55;;;;;;;1.43;1.37;;;;;;;14.08;60.88;97159.25;7034741;28;20211;-80
2022/04/24 09:39:27;;;;;;;3.90;1.40;;;;;;;14.16;60.13;97164.16;7035168;28;20193;-80
2022/04/24 09:42:55;;;;;;;1.30;1.30;;;;;;;14.24;59.55;97163.66;7033936;28;20722;-80
2022/04/24 09:46:27;;;;;;;1.73;1.63;;;;;;;14.43;59.79;97181.88;7034806;28;20205;-79
2022/04/24 09:49:50;;;;;;;2.13;1.83;;;;;;;14.65;59.28;97189.75;7035019;28;20259;-80
2022/04/24 09:53:13;;;;;;;2.00;1.90;;;;;;;14.74;59.00;97178.09;7034590;28;20208;-80
2022/04/24 09:56:35;;;;;;;1.73;1.60;;;;;;;14.51;59.12;97158.84;7033010;28;20287;-80
2022/04/24 09:59:57;;;;;;;2.23;2.03;;;;;;;14.42;59.77;97192.97;7035268;28;20221;-80
2022/04/24 10:03:21;;;;;;;4.07;3.70;;;;;;;13.74;61.18;97185.16;7034264;28;20216;-80
2022/04/24 10:06:44;;;;;;;1.57;1.47;;;;;;;14.02;61.39;97179.28;7033623;28;20211;-80
2022/04/24 10:10:07;;;;;;;1.60;1.50;;;;;;;14.33;59.89;97197.31;7033727;28;20237;-80
2022/04/24 10:13:30;;;;;;;2.33;2.13;;;;;;;14.28;60.96;97184.53;7033499;28;20202;-80
2022/04/24 10:17:11;;;;;;;5.67;3.00;;;;;;;13.94;61.20;97144.59;7032679;28;20240;-80
2022/04/24 10:20:51;;;;;;;3.70;3.40;;;;;;;13.96;61.26;97199.31;7033011;28;20823;-80
2022/04/24 10:24:13;;;;;;;2.10;2.00;;;;;;;13.95;62.25;97201.22;7033896;28;20197;-81
2022/04/24 10:27:39;;;;;;;2.73;1.90;;;;;;;14.24;60.51;97194.31;7032165;28;20199;-82
2022/04/24 10:31:03;;;;;;;2.60;1.77;;;;;;;14.07;61.36;97196.38;7029671;28;20237;-82
2022/04/24 10:34:26;;;;;;;14.33;8.53;;;;;;;14.19;61.57;97194.28;7025861;28;20208;-82
2022/04/24 10:37:49;;;;;;;12.90;10.83;;;;;;;14.52;61.90;97210.06;7003737;28;20218;-82
2022/04/24 10:41:15;;;;;;;2.30;2.10;;;;;;;14.41;60.59;97189.47;7029399;28;20232;-81
2022/04/24 10:44:37;;;;;;;2.00;1.90;;;;;;;14.55;60.71;97209.56;7033418;28;20195;-80
2022/04/24 10:48:03;;;;;;;2.40;2.20;;;;;;;14.00;61.20;97176.84;7033057;28;20209;-81
2022/04/24 10:51:29;;;;;;;2.70;2.50;;;;;;;13.89;62.43;97206.88;7032691;28;20228;-80
2022/04/24 10:54:52;;;;;;;2.83;2.63;;;;;;;14.33;61.92;97206.25;7031729;28;20204;-81
2022/04/24 10:58:13;;;;;;;3.60;2.00;;;;;;;13.99;62.58;97221.25;7032716;28;20204;-80
2022/04/24 11:01:36;;;;;;;1.53;1.43;;;;;;;14.00;61.50;97222.09;7031729;28;20227;-79
2022/04/24 11:04:59;;;;;;;1.77;1.67;;;;;;;13.94;61.75;97217.72;7032643;28;20244;-82
2022/04/24 11:08:21;;;;;;;1.40;1.30;;;;;;;14.17;61.59;97238.97;7031589;28;20208;-81
2022/04/24 11:11:47;;;;;;;4.30;1.80;;;;;;;14.03;61.18;97240.50;7031778;28;20241;-81
2022/04/24 11:15:11;;;;;;;1.60;1.50;;;;;;;13.87;62.55;97234.22;7032148;28;20209;-80
2022/04/24 11:18:33;;;;;;;1.70;1.43;;;;;;;14.42;61.46;97234.47;7031050;28;20581;-82
2022/04/24 11:21:56;;;;;;;1.57;1.47;;;;;;;14.72;61.22;97236.41;7030807;28;20225;-80
2022/04/24 11:25:19;;;;;;;2.33;1.73;;;;;;;14.51;61.39;97218.50;7012107;28;20231;-80
2022/04/24 11:28:43;;;;;;;1.77;1.50;;;;;;;14.94;60.61;97223.44;7003784;28;20305;-80
2022/04/24 11:32:08;;;;;;;1.63;1.50;;;;;;;14.61;59.12;97215.78;7004879;28;20651;-80
2022/04/24 11:35:30;;;;;;;1.53;1.50;;;;;;;14.67;59.71;97252.69;7003932;28;20665;-79
2022/04/24 11:38:52;;;;;;;1.23;1.23;;;;;;;14.76;57.00;97243.75;7031665;28;20694;-80
2022/04/24 11:42:14;;;;;;;1.20;1.20;;;;;;;14.88;57.87;97257.91;7032703;28;20277;-81
2022/04/24 11:52:57;;;;;;;1.80;1.10;;;;;;;14.70;58.26;97246.72;7019869;28;20224;-81
2022/04/24 11:56:18;;;;;;;1.43;1.37;;;;;;;15.18;58.03;97248.94;7002592;28;20198;-81
2022/04/24 11:59:40;;;;;;;1.30;1.20;;;;;;;14.52;59.15;97248.03;7002976;28;20218;-81
2022/04/24 12:03:03;;;;;;;0.93;0.93;;;;;;;15.29;56.78;97250.56;7030104;28;20553;-81
2022/04/24 12:06:31;;;;;;;1.27;1.17;;;;;;;15.09;56.17;97256.81;7026646;28;20247;-81
2022/04/24 12:09:58;;;;;;;1.37;1.10;;;;;;;15.28;57.47;97244.31;7031837;28;20708;-80
2022/04/24 12:13:22;;;;;;;0.90;0.90;;;;;;;15.14;56.56;97261.41;7032503;28;20637;-81
2022/04/24 12:16:48;;;;;;;0.90;0.90;;;;;;;15.52;56.25;97242.69;7031215;28;20204;-81
2022/04/24 12:20:11;;;;;;;1.07;1.00;;;;;;;15.37;55.20;97198.44;7017048;28;20229;-81
2022/04/24 12:23:32;;;;;;;1.20;1.20;;;;;;;14.98;56.51;97160.19;7003460;28;20224;-80
2022/04/24 12:26:54;;;;;;;0.97;0.97;;;;;;;15.72;55.66;97250.00;7003325;28;20212;-81
2022/04/24 12:30:16;;;;;;;1.10;1.10;;;;;;;15.02;57.00;97220.16;7004721;28;20236;-82
2022/04/24 12:33:46;;;;;;;1.13;1.13;;;;;;;15.14;56.65;97251.38;7004870;28;20609;-81
2022/04/24 12:37:09;;;;;;;1.27;1.20;;;;;;;15.43;56.75;97257.09;7005195;28;20197;-80
2022/04/24 12:40:31;;;;;;;2.03;1.43;;;;;;;15.70;56.24;97238.59;7020907;28;20235;-82
2022/04/24 12:43:53;;;;;;;1.30;1.20;;;;;;;15.94;55.10;97243.16;7004350;28;20206;-81
2022/04/24 12:47:14;;;;;;;1.37;1.27;;;;;;;15.17;58.48;97250.03;7004343;28;20207;-81
2022/04/24 12:50:36;;;;;;;1.27;1.27;;;;;;;15.55;57.40;97247.59;7020007;28;20369;-81
2022/04/24 12:54:01;;;;;;;1.60;1.50;;;;;;;15.64;56.30;97240.50;7032783;28;20216;-80
2022/04/24 12:57:22;;;;;;;1.40;1.30;;;;;;;16.04;56.06;97243.09;7030574;28;20199;-81
2022/04/24 13:00:45;;;;;;;1.57;1.47;;;;;;;15.59;55.90;97245.97;7033128;28;20232;-81
2022/04/24 13:04:06;;;;;;;1.10;1.10;;;;;;;16.07;55.86;97220.00;7033655;28;20662;-81
2022/04/24 13:07:29;;;;;;;1.60;1.50;;;;;;;16.10;56.14;97205.84;7041607;28;20307;-81
2022/04/24 13:10:52;;;;;;;1.60;1.50;;;;;;;15.67;56.77;97158.47;7042131;28;20231;-81
2022/04/24 13:14:14;;;;;;;1.43;1.30;;;;;;;15.61;57.18;97237.50;7036218;28;20600;-81
2022/04/24 13:21:15;;;;;;;1.67;1.37;;;;;;;15.64;57.18;97245.13;7034812;28;20426;-81
2022/04/24 13:24:36;;;;;;;1.50;1.33;;;;;;;15.50;57.55;97234.00;7035053;28;20201;-81
2022/04/24 13:27:59;;;;;;;1.40;1.30;;;;;;;15.69;57.22;97254.06;7034111;28;20208;-81
2022/04/24 13:31:21;;;;;;;1.60;1.43;;;;;;;15.93;56.48;97225.19;7034911;28;20685;-81
2022/04/24 13:34:43;;;;;;;1.23;1.17;;;;;;;15.88;56.96;97255.13;7034874;28;20202;-81
2022/04/24 13:38:19;;;;;;;3.13;2.53;;;;;;;16.06;56.09;97264.59;7033995;28;20656;-81
2022/04/24 13:41:41;;;;;;;1.67;1.57;;;;;;;16.32;55.76;97266.94;7034573;28;20266;-80
2022/04/24 13:45:04;;;;;;;45.20;28.67;;;;;;;15.84;56.45;97239.63;7034301;28;20253;-81
2022/04/24 13:48:26;;;;;;;1.33;1.23;;;;;;;15.64;56.91;97266.88;7033921;28;20212;-81
2022/04/24 13:51:48;;;;;;;2.87;1.50;;;;;;;15.40;59.12;97273.97;7033493;28;20702;-80
2022/04/24 13:55:10;;;;;;;1.60;1.53;;;;;;;15.80;56.24;97269.28;7033723;28;20205;-81
2022/04/24 13:58:32;;;;;;;1.20;1.20;;;;;;;15.83;56.67;97290.47;7032034;28;20208;-81
2022/04/24 14:01:55;;;;;;;1.60;1.50;;;;;;;16.08;56.31;97278.69;7034565;28;20221;-81
2022/04/24 14:05:17;;;;;;;1.00;1.00;;;;;;;16.09;56.08;97289.31;7035012;28;20224;-81
2022/04/24 14:08:39;;;;;;;3.00;2.10;;;;;;;16.35;55.64;97288.13;7033638;28;20240;-81
2022/04/24 14:12:00;;;;;;;1.27;1.17;;;;;;;16.46;54.81;97288.94;7033971;28;20236;-81
2022/04/24 14:15:25;;;;;;;1.70;1.60;;;;;;;15.73;56.35;97295.09;7033544;28;20216;-81
2022/04/24 14:18:48;;;;;;;1.67;1.57;;;;;;;15.61;58.04;97303.53;7031427;28;20220;-81
2022/04/24 14:22:10;;;;;;;1.50;1.40;;;;;;;15.61;57.76;97297.28;7033102;28;20225;-81
2022/04/24 14:25:32;;;;;;;7.03;4.33;;;;;;;15.26;56.88;97237.53;7033397;28;20310;-80
2022/04/24 14:28:53;;;;;;;2.50;2.07;;;;;;;15.43;58.47;97308.69;7032873;28;20208;-80
2022/04/24 14:32:15;;;;;;;5.47;2.90;;;;;;;15.33;59.04;97314.16;7033188;28;20379;-81
2022/04/24 14:35:38;;;;;;;2.50;2.30;;;;;;;15.12;59.21;97286.16;7033021;28;20203;-83
2022/04/24 14:39:00;;;;;;;2.87;2.50;;;;;;;15.17;59.06;97318.69;7033069;28;20205;-82
2022/04/24 14:42:21;;;;;;;3.10;2.80;;;;;;;15.25;59.94;97328.22;7032596;28;20278;-83
2022/04/24 14:56:41;;;;;;;2.03;1.90;;;;;;;14.69;63.67;97342.75;7030924;28;20181;-82
2022/04/24 15:00:06;;;;;;;2.60;2.37;;;;;;;15.17;62.45;97334.19;7030340;28;20571;-82
2022/04/24 15:03:27;;;;;;;5.47;4.03;;;;;;;15.49;62.34;97341.03;7032282;28;20194;-83
2022/04/24 15:06:49;;;;;;;13.03;7.47;;;;;;;15.27;62.87;97345.06;7031684;28;20214;-83
2022/04/24 15:10:12;;;;;;;3.57;3.23;;;;;;;15.02;62.63;97339.59;7031997;28;20215;-82
2022/04/24 15:13:34;;;;;;;7.80;6.67;;;;;;;15.42;62.48;97332.34;7028812;28;20221;-82
2022/04/24 15:16:55;;;;;;;3.67;3.33;;;;;;;15.24;62.97;97351.03;7018592;28;20210;-82
2022/04/24 15:20:17;;;;;;;3.57;3.13;;;;;;;15.52;62.52;97350.53;7022722;28;20712;-81
2022/04/24 15:23:44;;;;;;;3.03;2.83;;;;;;;15.26;63.37;97349.69;7003616;28;20211;-82
2022/04/24 15:27:07;;;;;;;2.50;2.30;;;;;;;15.27;63.39;97356.72;7003660;28;20196;-82
2022/04/24 15:30:29;;;;;;;2.20;2.10;;;;;;;14.98;63.61;97343.94;7003088;28;20231;-82
2022/04/24 15:33:51;;;;;;;2.40;2.30;;;;;;;15.35;63.08;97355.41;7024691;28;20217;-83
2022/04/24 15:37:12;;;;;;;2.30;2.20;;;;;;;15.34;63.28;97372.81;7031453;28;20700;-82
2022/04/24 15:40:34;;;;;;;2.20;2.10;;;;;;;15.18;63.09;97352.94;7031949;28;20788;-83
2022/04/24 15:43:58;;;;;;;2.90;2.70;;;;;;;15.17;63.00;97358.63;7031556;28;20206;-80
2022/04/24 15:47:21;;;;;;;3.10;2.90;;;;;;;15.28;63.57;97374.66;7032262;28;20236;-82
2022/04/24 15:50:43;;;;;;;2.70;2.50;;;;;;;14.93;63.69;97343.91;7031466;28;20345;-82
2022/04/24 15:54:04;;;;;;;2.60;2.40;;;;;;;14.55;64.91;97385.84;7031544;28;20229;-83
2022/04/24 15:57:28;;;;;;;4.60;3.37;;;;;;;14.54;64.60;97354.38;7030619;28;20282;-82
2022/04/24 16:00:51;;;;;;;4.33;3.80;;;;;;;14.75;64.92;97385.91;7031295;28;20229;-82
2022/04/24 16:04:13;;;;;;;5.03;4.63;;;;;;;14.53;65.08;97384.47;7031573;28;20226;-83
2022/04/24 16:07:34;;;;;;;4.70;4.30;;;;;;;15.00;64.73;97382.47;7030876;28;20198;-82
2022/04/24 16:10:57;;;;;;;5.23;4.60;;;;;;;14.93;63.75;97398.19;7030885;28;20232;-82